Airfield :
LOGIN :

Register | Disclaimer

   EN    FR    IT 

 










Legend :    VFR   Marginal VFR   IFR   Intensive IFR   Very Intensive IFR
Visi :
Ceiling :
>= 8 km
>= 3000ft
5 to 8 km
1000 to 3000 ft
1500m to 5 km
500 to 1000 ft
800 to 1500m
200 to 500 ft
< 800m
< 200 ft
Symbols :   Thunderstorms  Fog  Heavy snow  Heavy precipitations  Wind > 20 kt
SIGMETs :     Misc.  Thunderstorms  Icing  Turbulence  Mountain Waves  Volcanic Ashes







- Airport Elevation : 90 ft
- IATA code : NTE
- Download approach charts


LFRS - Nantes

CURRENT METAR :
  • 220900Z AUTO 16007KT 9999 BKN037 OVC064 15/11 Q1023 NOSIG

EXPIRED METARs :
  • 220830Z AUTO 16007KT 130V190 CAVOK 14/11 Q1022 NOSIG
  • 220800Z AUTO 15007KT CAVOK 14/11 Q1022 NOSIG
  • 220730Z AUTO 14005KT CAVOK 13/11 Q1023 NOSIG
  • 220700Z AUTO 15006KT 130V210 CAVOK 12/11 Q1023 NOSIG
  • 220630Z AUTO 15005KT 130V200 CAVOK 11/10 Q1023 NOSIG

TAF TAF LFRS
Valid from the 22 at 06:00 until the 23 at 12:00 UTC


220500Z 2206/2312 16004KT CAVOK
BECMG 2212/2215 20012KT
BECMG 2216/2218 BKN012
TEMPO 2218/2312 23015G27KT 2500 -RADZ BKN004
ATIS : +33 2 40 05 12 74
No reported NOTAMs for that airfield.
1 SIGMET reported for the Brest FIR (LFRR) :
 
Severe icing
LFRR SIGMET 1 VALID 220630/221000 LFPW
LFRR BREST FIR/UIR SEV ICE FCST WI N4930 W00445 - N5000 W00200 - N5000 W00015 - N4845 W00015 - N4900 W00400 - N4930 W00445 FL080/200 MOV E 35KT NC=



MET'MAP, your aeronautical weather chart ! - Copyright ORBIFLY December 2007 - Disclaimer

ORBIFLY MET'MAP TEAM :

Programming & Development : Alexandra Zaïnal
Concept & Development : Baudouin d'Aumeries
Co-Development & Prog : Marc-Olivier Méhu
Technical & hardware support : Manuel Goepfert

Contact : metmap@orbifly.com




SOURCES & CREDITS :

   NOAA